Time;durP1;ratioP1;P1;durP2;ratioP2;P2;SDS_P1;SDS_P2;PMS_P1;PMS_P2;Temp;Humidity;BMP_temperature;BMP_pressure;BME280_temperature;BME280_humidity;BME280_pressure;Samples;Min_cycle;Max_cycle;Signal;HPM_P1;HPM_P2
2022/09/13 00:00:30;;;;;;;9.00;8.13;;;15.30;77.60;;;14.31;100.00;95765.53;4995661;28;20081;-72
2022/09/13 00:02:56;;;;;;;11.13;8.82;;;15.30;77.50;;;14.29;100.00;95765.75;4947602;28;20119;-72
2022/09/13 00:05:21;;;;;;;10.13;8.98;;;15.40;77.50;;;14.27;100.00;95764.34;4974070;28;20104;-72
2022/09/13 00:07:47;;;;;;;9.57;8.48;;;15.30;77.10;;;14.23;100.00;95763.97;5001565;28;20503;-72
2022/09/13 00:10:13;;;;;;;10.00;8.70;;;15.20;76.70;;;14.21;100.00;95755.44;4996817;28;20088;-72
2022/09/13 00:12:39;;;;;;;9.65;8.45;;;15.20;76.70;;;14.16;100.00;95742.06;4965777;28;20054;-72
2022/09/13 00:15:05;;;;;;;8.60;7.70;;;15.10;77.10;;;14.13;100.00;95737.22;4980833;28;20057;-71
2022/09/13 00:17:31;;;;;;;9.80;7.75;;;15.10;77.10;;;14.08;100.00;95734.44;4964905;28;20121;-72
2022/09/13 00:19:57;;;;;;;10.23;7.47;;;15.00;77.30;;;14.06;100.00;95728.56;5048515;28;20061;-72
2022/09/13 00:22:22;;;;;;;9.15;7.38;;;15.00;77.40;;;14.04;100.00;95727.97;4962499;28;20215;-72
2022/09/13 00:24:48;;;;;;;7.93;6.88;;;15.10;77.40;;;14.03;100.00;95719.25;4965288;28;20037;-72
2022/09/13 00:27:14;;;;;;;8.02;7.18;;;15.10;77.20;;;13.98;100.00;95724.34;5001557;28;20115;-73
2022/09/13 00:29:40;;;;;;;9.73;7.90;;;15.00;77.20;;;13.88;100.00;95713.47;4993563;28;20154;-72
2022/09/13 00:32:05;;;;;;;11.45;8.73;;;15.00;77.20;;;13.89;100.00;95715.09;4932061;28;20059;-73
2022/09/13 00:34:31;;;;;;;11.27;9.25;;;14.90;77.40;;;13.90;100.00;95715.91;4981484;28;20133;-72
2022/09/13 00:36:57;;;;;;;11.30;9.23;;;15.00;77.70;;;13.88;100.00;95724.06;4998464;28;20457;-72
2022/09/13 00:39:23;;;;;;;10.85;9.63;;;15.00;77.70;;;13.87;100.00;95721.63;5007799;28;20506;-72
2022/09/13 00:41:48;;;;;;;11.90;10.70;;;14.90;78.00;;;13.82;100.00;95727.59;4970132;28;20031;-72
2022/09/13 00:44:59;;;;;;;12.27;10.98;;;14.90;78.30;;;13.83;100.00;95737.13;4970929;28;20091;-72
2022/09/13 00:47:46;;;;;;;12.63;11.27;;;14.90;78.50;;;13.78;100.00;95736.94;4963676;28;20448;-72
2022/09/13 00:50:39;;;;;;;11.77;10.60;;;14.80;78.80;;;13.76;100.00;95734.53;4983249;28;20035;-73
2022/09/13 00:53:30;;;;;;;12.20;10.40;;;14.80;78.70;;;13.75;100.00;95724.97;4949299;28;20039;-72
2022/09/13 00:55:58;;;;;;;11.55;10.18;;;14.80;78.80;;;13.71;100.00;95717.72;4981127;28;20510;-73
2022/09/13 00:58:38;;;;;;;11.35;10.07;;;14.70;78.90;;;13.68;100.00;95728.72;5024692;28;20125;-70
2022/09/13 01:01:04;;;;;;;11.27;10.07;;;14.70;78.90;;;13.64;100.00;95722.25;5004795;28;20031;-71
2022/09/13 01:03:30;;;;;;;12.13;10.60;;;14.70;79.00;;;13.59;100.00;95709.69;5004553;28;20607;-71
2022/09/13 01:06:04;;;;;;;12.88;9.88;;;14.60;79.10;;;13.57;100.00;95705.63;5025901;28;20035;-71
2022/09/13 01:08:31;;;;;;;12.90;10.18;;;14.60;79.20;;;13.55;100.00;95699.75;5001283;28;20131;-73
2022/09/13 01:10:58;;;;;;;10.45;9.35;;;14.60;79.30;;;13.54;100.00;95695.50;5000006;28;20054;-73
2022/09/13 01:13:26;;;;;;;11.20;9.35;;;14.60;79.10;;;13.51;100.00;95698.56;4959649;28;20054;-71
2022/09/13 01:15:52;;;;;;;12.20;8.90;;;14.60;79.20;;;13.47;100.00;95706.94;4969483;28;20047;-72
2022/09/13 01:18:18;;;;;;;11.73;9.25;;;14.50;79.20;;;13.42;100.00;95704.13;4989579;28;20068;-72
2022/09/13 01:21:54;;;;;;;12.73;8.70;;;14.50;79.30;;;13.37;100.00;95697.91;4964972;28;20038;-72
2022/09/13 01:24:49;;;;;;;10.35;9.13;;;14.50;79.30;;;13.33;100.00;95699.31;4997089;28;20444;-71
2022/09/13 01:27:29;;;;;;;10.52;8.73;;;14.40;79.30;;;13.28;100.00;95694.69;5006427;28;20050;-71
2022/09/13 01:30:15;;;;;;;10.48;9.38;;;14.30;79.50;;;13.28;100.00;95692.06;4984214;28;20118;-72
2022/09/13 01:32:48;;;;;;;10.70;8.73;;;14.40;79.50;;;13.25;100.00;95681.94;4983296;28;20081;-73
2022/09/13 01:35:27;;;;;;;11.77;9.68;;;14.30;79.50;;;13.24;100.00;95685.59;4986982;28;20050;-72
2022/09/13 01:38:00;;;;;;;10.27;9.10;;;14.30;79.40;;;13.22;100.00;95689.47;5009190;28;20037;-72
2022/09/13 01:40:57;;;;;;;11.80;9.20;;;14.30;79.40;;;13.20;100.00;95688.88;4992220;28;20414;-72
2022/09/13 01:43:48;;;;;;;10.70;8.30;;;14.30;79.30;;;13.17;100.00;95684.81;4980005;28;20469;-72
2022/09/13 01:46:21;;;;;;;10.98;9.05;;;14.30;79.30;;;13.15;100.00;95686.88;4990842;28;20039;-72
2022/09/13 01:49:19;;;;;;;10.77;8.73;;;14.20;79.30;;;13.16;100.00;95677.91;4964202;28;20097;-72
2022/09/13 01:51:50;;;;;;;9.73;8.10;;;14.20;79.20;;;13.11;100.00;95675.09;4966104;28;20049;-72
2022/09/13 01:54:51;;;;;;;8.93;8.02;;;14.10;79.10;;;13.08;100.00;95683.44;4972921;28;20039;-72
2022/09/13 01:57:45;;;;;;;10.88;8.30;;;14.10;79.30;;;13.04;100.00;95687.53;4998894;28;20362;-71
2022/09/13 02:00:13;;;;;;;9.60;8.60;;;14.10;79.40;;;13.02;100.00;95681.66;4979188;28;20043;-71
2022/09/13 02:03:20;;;;;;;8.82;7.93;;;14.10;79.30;;;13.01;100.00;95690.59;4956043;28;20025;-72
2022/09/13 02:06:02;;;;;;;9.18;7.72;;;14.10;79.00;;;12.98;100.00;95685.75;4990153;28;20419;-72
2022/09/13 02:08:39;;;;;;;8.93;7.95;;;14.10;79.00;;;12.93;100.00;95678.50;4954328;28;20490;-71
2022/09/13 02:11:21;;;;;;;11.25;7.70;;;14.10;79.00;;;12.94;100.00;95681.94;4955392;28;20053;-72
2022/09/13 02:14:06;;;;;;;8.35;7.35;;;14.10;79.00;;;12.91;100.00;95679.72;4971942;28;20077;-71
2022/09/13 02:16:42;;;;;;;10.88;7.53;;;14.10;79.30;;;12.91;100.00;95685.00;4958636;28;20535;-72
2022/09/13 02:19:19;;;;;;;8.63;7.72;;;14.10;79.30;;;12.90;100.00;95692.13;4986338;28;20045;-72
2022/09/13 02:21:48;;;;;;;8.90;7.50;;;14.10;79.30;;;12.87;100.00;95690.69;4965048;28;20094;-72
2022/09/13 02:24:18;;;;;;;8.40;7.47;;;14.00;79.30;;;12.85;100.00;95686.66;4975390;28;20041;-72
2022/09/13 02:26:45;;;;;;;10.05;7.55;;;14.00;79.30;;;12.84;100.00;95688.47;5011972;28;20060;-71
2022/09/13 02:29:16;;;;;;;9.20;7.40;;;13.90;79.30;;;12.81;100.00;95686.25;5010780;28;20031;-72
2022/09/13 02:32:09;;;;;;;9.52;7.60;;;13.90;79.40;;;12.82;100.00;95690.53;5009824;28;20029;-71
2022/09/13 02:35:09;;;;;;;7.97;7.18;;;14.00;79.40;;;12.77;100.00;95693.00;4951643;28;20053;-72
2022/09/13 02:37:37;;;;;;;9.57;6.80;;;13.90;79.00;;;12.71;100.00;95685.94;5006526;28;20029;-72
2022/09/13 02:40:09;;;;;;;8.07;6.80;;;13.80;79.10;;;12.70;100.00;95692.22;4997406;28;20035;-72
2022/09/13 02:42:52;;;;;;;8.35;6.75;;;13.80;79.20;;;12.69;100.00;95693.25;5015437;28;20657;-72
2022/09/13 02:45:18;;;;;;;7.70;6.25;;;13.80;79.00;;;12.68;100.00;95690.81;4959126;28;20035;-72
2022/09/13 02:47:57;;;;;;;7.57;6.28;;;13.80;78.60;;;12.66;100.00;95704.22;4948189;28;20379;-72
2022/09/13 02:50:27;;;;;;;6.97;5.53;;;13.80;78.60;;;12.64;100.00;95695.69;4937398;28;20180;-71
2022/09/13 02:53:10;;;;;;;17.27;14.10;;;13.80;78.60;;;12.62;100.00;95696.94;4960860;28;20113;-75
2022/09/13 02:56:00;;;;;;;38.03;29.98;;;13.80;79.00;;;12.60;100.00;95704.25;4968978;28;20043;-72
2022/09/13 02:58:50;;;;;;;24.70;17.75;;;13.70;79.10;;;12.57;100.00;95689.66;4967754;28;20084;-68
2022/09/13 03:01:16;;;;;;;31.40;25.00;;;13.70;79.40;;;12.52;100.00;95684.22;4986033;28;20047;-72
2022/09/13 03:03:43;;;;;;;47.78;37.83;;;13.70;79.40;;;12.51;100.00;95685.22;5001023;28;20310;-72
2022/09/13 03:06:09;;;;;;;22.85;19.27;;;13.70;79.50;;;12.52;100.00;95686.84;5033146;28;20045;-73
2022/09/13 03:08:34;;;;;;;21.02;15.77;;;13.70;79.40;;;12.49;100.00;95682.00;5034768;28;20043;-73
2022/09/13 03:11:12;;;;;;;13.23;11.02;;;13.70;79.50;;;12.54;100.00;95693.53;5015947;28;20478;-73
2022/09/13 03:14:27;;;;;;;14.40;12.25;;;13.70;79.40;;;12.53;100.00;95693.75;5057145;28;20059;-73
2022/09/13 03:17:28;;;;;;;19.58;17.48;;;13.70;79.20;;;12.47;100.00;95691.94;4967384;28;20081;-73
2022/09/13 03:20:05;;;;;;;;;;;13.70;78.80;;;12.46;100.00;95699.06;5031003;28;20096;-73
2022/09/13 03:23:31;;;;;;;21.23;17.08;;;13.60;78.70;;;12.45;100.00;95691.34;4981160;28;19922;-72
2022/09/13 03:26:09;;;;;;;22.65;18.95;;;13.60;79.10;;;12.40;100.00;95678.78;4991942;28;20039;-72
2022/09/13 03:28:52;;;;;;;10.52;7.90;;;13.60;79.40;;;12.35;100.00;95669.88;4966018;28;20121;-73
2022/09/13 03:31:28;;;;;;;10.25;8.77;;;13.50;79.50;;;12.32;100.00;95670.31;4966574;28;20776;-73
2022/09/13 03:34:11;;;;;;;11.40;9.73;;;13.50;80.00;;;12.27;100.00;95663.84;4950863;28;20038;-73
2022/09/13 03:37:01;;;;;;;15.40;12.73;;;13.40;80.30;;;12.26;100.00;95664.84;4965114;28;20043;-73
2022/09/13 03:39:41;;;;;;;35.60;26.23;;;13.50;80.40;;;12.26;100.00;95672.78;5007467;28;20038;-72
2022/09/13 03:42:32;;;;;;;28.57;22.83;;;13.50;80.90;;;12.25;100.00;95675.63;5031604;28;20042;-73
2022/09/13 03:44:58;;;;;;;14.98;11.88;;;13.40;80.70;;;12.24;100.00;95676.63;4955290;28;20094;-72
2022/09/13 03:47:25;;;;;;;12.13;10.88;;;13.40;80.70;;;12.20;100.00;95672.78;4967116;28;20027;-73
2022/09/13 03:49:51;;;;;;;13.23;10.55;;;13.40;80.60;;;12.20;100.00;95678.03;4946579;28;20506;-73
2022/09/13 03:52:17;;;;;;;11.68;10.38;;;13.40;80.60;;;12.17;100.00;95673.19;5016526;28;20055;-73
2022/09/13 03:54:43;;;;;;;12.27;9.82;;;13.30;80.60;;;12.16;100.00;95677.66;4963144;28;20121;-64
2022/09/13 03:57:08;;;;;;;11.30;9.35;;;13.40;80.50;;;12.15;100.00;95670.78;4947209;28;20104;-69
2022/09/13 03:59:37;;;;;;;9.80;8.80;;;13.40;80.40;;;12.13;100.00;95672.81;4964017;28;20031;-70
2022/09/13 04:02:03;;;;;;;11.57;9.23;;;13.30;80.40;;;12.11;100.00;95666.13;4936194;28;20027;-70
2022/09/13 04:04:29;;;;;;;10.52;8.60;;;13.30;80.50;;;12.10;100.00;95675.06;4949659;28;20031;-70
2022/09/13 04:06:55;;;;;;;8.73;7.82;;;13.30;80.40;;;12.11;100.00;95677.47;4964308;28;20499;-70
2022/09/13 04:09:22;;;;;;;9.30;7.65;;;13.30;80.50;;;12.12;100.00;95681.75;4959860;28;20039;-70
2022/09/13 04:11:47;;;;;;;11.25;7.47;;;13.30;80.50;;;12.10;100.00;95673.22;5004396;28;20415;-69
2022/09/13 04:14:15;;;;;;;10.63;7.10;;;13.40;80.30;;;12.11;100.00;95668.75;5007747;28;20036;-70
2022/09/13 04:16:40;;;;;;;8.77;7.25;;;13.30;80.20;;;12.10;100.00;95673.22;5027608;28;20036;-70
2022/09/13 04:19:08;;;;;;;7.40;6.00;;;13.40;80.30;;;12.08;100.00;95672.63;4950780;28;20039;-70
2022/09/13 04:21:34;;;;;;;8.70;6.30;;;13.40;80.10;;;12.11;100.00;95682.75;4951909;28;20038;-70
2022/09/13 04:24:00;;;;;;;6.97;6.13;;;13.40;80.20;;;12.09;100.00;95682.16;4968626;28;20053;-70
2022/09/13 04:26:26;;;;;;;6.85;5.65;;;13.40;80.20;;;12.08;100.00;95685.81;4995436;28;20452;-70
2022/09/13 04:28:52;;;;;;;7.10;6.20;;;13.40;80.20;;;12.09;100.00;95697.16;5026474;28;20408;-70
2022/09/13 04:31:18;;;;;;;6.40;5.30;;;13.30;80.10;;;12.08;100.00;95696.34;5068475;28;20032;-70
2022/09/13 04:33:44;;;;;;;6.63;5.70;;;13.30;80.10;;;12.10;100.00;95688.25;5068824;28;20047;-69
2022/09/13 04:36:10;;;;;;;12.48;5.10;;;13.30;80.00;;;12.08;100.00;95696.34;5052227;28;20079;-70
2022/09/13 04:38:36;;;;;;;6.28;4.82;;;13.20;80.30;;;12.05;100.00;95691.50;5069929;28;20396;-70
2022/09/13 04:41:02;;;;;;;7.93;5.45;;;13.20;80.30;;;12.04;100.00;95695.16;5023064;28;20089;-69
2022/09/13 04:43:27;;;;;;;10.18;8.88;;;13.20;80.20;;;12.03;100.00;95698.81;4993019;28;20039;-69
2022/09/13 04:45:53;;;;;;;8.40;6.88;;;13.30;80.40;;;12.04;100.00;95694.34;4967127;28;20030;-70
2022/09/13 04:48:19;;;;;;;14.98;11.23;;;13.30;80.20;;;12.03;100.00;95698.00;4967242;28;20046;-70
2022/09/13 04:50:44;;;;;;;9.80;7.57;;;13.30;80.20;;;12.03;100.00;95698.81;4966254;28;20483;-70
2022/09/13 04:53:10;;;;;;;8.10;6.05;;;13.30;80.10;;;12.00;100.00;95699.22;4967002;28;20399;-70
2022/09/13 04:55:36;;;;;;;8.43;5.03;;;13.30;80.10;;;12.00;100.00;95691.31;5026442;28;20037;-70
2022/09/13 04:58:03;;;;;;;8.90;4.50;;;13.30;79.90;;;12.01;100.00;95692.94;4973504;28;20037;-70
2022/09/13 05:00:30;;;;;;;6.25;4.78;;;13.30;79.90;;;12.02;100.00;95691.94;4967246;28;20408;-70
2022/09/13 05:02:56;;;;;;;7.15;4.55;;;13.30;80.00;;;12.04;100.00;95692.53;4968191;28;20548;-69
2022/09/13 05:05:22;;;;;;;7.35;4.15;;;13.40;80.10;;;12.05;100.00;95694.13;4967589;28;21649;-70
2022/09/13 05:07:51;;;;;;;6.00;3.90;;;13.40;80.10;;;12.05;100.00;95688.88;4992829;28;20051;-70
2022/09/13 05:10:17;;;;;;;4.47;3.92;;;13.40;80.10;;;12.06;100.00;95690.50;5018038;28;20025;-70
2022/09/13 05:12:43;;;;;;;4.57;3.47;;;13.40;80.30;;;12.11;100.00;95692.50;5068568;28;20086;-70
2022/09/13 05:15:10;;;;;;;4.88;3.38;;;13.50;80.30;;;12.13;100.00;95691.25;5067628;28;20474;-70
2022/09/13 05:17:36;;;;;;;7.00;3.30;;;13.50;80.30;;;12.16;100.00;95688.22;5070569;28;20029;-70
2022/09/13 05:20:04;;;;;;;4.47;3.20;;;13.50;80.40;;;12.19;100.00;95693.06;5055640;28;20507;-70
2022/09/13 05:22:29;;;;;;;5.25;3.10;;;13.60;80.40;;;12.23;100.00;95696.91;5012848;28;20028;-70
2022/09/13 05:24:55;;;;;;;3.35;3.03;;;13.60;80.30;;;12.26;100.00;95701.78;4976431;28;20036;-70
2022/09/13 05:27:21;;;;;;;5.50;3.42;;;13.70;80.10;;;12.32;100.00;95715.13;4934668;29;20089;-70
2022/09/13 05:29:47;;;;;;;5.57;3.17;;;13.70;79.80;;;12.34;100.00;95718.38;4950506;28;20081;-70
2022/09/13 05:32:12;;;;;;;5.10;3.42;;;13.70;79.80;;;12.34;100.00;95716.53;4950729;28;20515;-70
2022/09/13 05:34:38;;;;;;;4.22;3.45;;;13.60;79.70;;;12.36;100.00;95714.50;4950803;28;20035;-70
2022/09/13 05:37:04;;;;;;;12.43;8.40;;;13.70;79.60;;;12.37;100.00;95716.13;4950663;28;20452;-70
2022/09/13 05:39:30;;;;;;;13.02;10.10;;;13.70;79.60;;;12.39;100.00;95711.44;5027420;28;20056;-69
2022/09/13 05:41:56;;;;;;;7.30;5.20;;;13.80;79.60;;;12.40;100.00;95697.22;5067241;28;20037;-70
2022/09/13 05:44:21;;;;;;;4.32;3.40;;;13.70;79.60;;;12.38;100.00;95693.19;5030632;28;20021;-70
2022/09/13 05:46:47;;;;;;;4.75;3.30;;;13.80;79.70;;;12.42;100.00;95704.94;5071735;28;20109;-70
2022/09/13 05:49:13;;;;;;;6.55;3.47;;;13.80;79.70;;;12.44;100.00;95705.53;5071154;28;20079;-70
2022/09/13 05:51:39;;;;;;;3.90;3.17;;;13.80;79.50;;;12.46;100.00;95701.69;5029836;28;20027;-70
2022/09/13 05:54:05;;;;;;;5.10;3.72;;;13.80;79.50;;;12.48;100.00;95693.56;5050547;28;20064;-70
2022/09/13 05:56:31;;;;;;;4.38;3.20;;;13.90;79.60;;;12.50;100.00;95686.25;5042898;28;20138;-70
2022/09/13 05:58:56;;;;;;;4.68;3.15;;;14.00;79.70;;;12.50;100.00;95681.78;5011576;28;20043;-67
2022/09/13 06:01:27;;;;;;;5.10;3.03;;;13.90;79.60;;;12.55;100.00;95681.16;5030019;28;20029;-70
2022/09/13 06:03:55;;;;;;;6.25;3.38;;;13.90;79.70;;;12.59;100.00;95684.97;5054750;28;20060;-70
2022/09/13 06:06:21;;;;;;;4.80;2.92;;;14.10;79.60;;;12.62;100.00;95687.19;5071574;28;20025;-70
2022/09/13 06:08:47;;;;;;;4.40;2.88;;;14.10;79.30;;;12.67;100.00;95695.28;5014410;28;20529;-70
2022/09/13 06:11:13;;;;;;;3.90;3.10;;;14.10;79.30;;;12.67;100.00;95705.81;5011179;28;20122;-70
2022/09/13 06:13:39;;;;;;;13.95;3.65;;;14.10;79.20;;;12.68;100.00;95715.38;4937360;28;20123;-68
2022/09/13 06:16:06;;;;;;;3.88;2.80;;;14.10;79.60;;;12.70;100.00;95709.91;5054142;28;20046;-69
2022/09/13 06:18:33;;;;;;;4.07;2.70;;;14.10;79.80;;;12.71;100.00;95701.75;4969345;28;20035;-68
2022/09/13 06:21:05;;;;;;;3.42;2.40;;;14.10;79.70;;;12.70;100.00;95702.78;4968890;28;20031;-67
2022/09/13 06:23:31;;;;;;;5.35;2.60;;;14.10;79.60;;;12.71;100.00;95701.75;4978400;28;20383;-68
2022/09/13 06:26:11;;;;;;;4.13;2.55;;;14.10;80.10;;;12.75;100.00;95704.78;5027964;28;20040;-68
2022/09/13 06:28:37;;;;;;;4.05;2.28;;;14.10;79.70;;;12.75;100.00;95705.59;5070570;28;20025;-68
2022/09/13 06:31:05;;;;;;;3.03;2.33;;;14.10;79.60;;;12.80;100.00;95699.69;5070595;28;20041;-68
2022/09/13 06:33:35;;;;;;;4.30;2.45;;;14.20;79.50;;;12.85;100.00;95692.72;5037805;28;20114;-68
2022/09/13 06:36:06;;;;;;;2.90;2.00;;;14.40;79.40;;;12.96;100.00;95690.44;5071081;28;20028;-68
2022/09/13 06:38:31;;;;;;;2.42;1.80;;;14.40;78.80;;;13.00;100.00;95689.00;5016812;28;20039;-68
2022/09/13 06:41:17;;;;;;;5.85;2.47;;;14.50;78.00;;;13.09;100.00;95687.69;5044128;28;20042;-68
2022/09/13 06:43:57;;;;;;;2.72;1.80;;;14.60;77.80;;;13.17;100.00;95684.81;5070889;28;20033;-69
2022/09/13 06:46:24;;;;;;;2.47;1.70;;;14.80;77.90;;;13.28;100.00;95685.97;5054398;28;20044;-68
2022/09/13 06:48:51;;;;;;;4.05;1.70;;;14.90;77.60;;;13.39;100.00;95690.56;5070470;28;20123;-68
2022/09/13 06:51:19;;;;;;;3.17;1.90;;;15.10;77.60;;;13.51;100.00;95686.16;5008475;28;20195;-68
2022/09/13 06:53:46;;;;;;;5.13;2.00;;;15.10;77.20;;;13.64;100.00;95701.09;4961998;28;20036;-68
2022/09/13 06:56:22;;;;;;;3.15;1.95;;;15.30;77.20;;;13.75;100.00;95695.09;5070456;28;20052;-68
2022/09/13 06:58:49;;;;;;;3.58;2.45;;;15.50;77.00;;;13.88;100.00;95702.91;5053622;28;20120;-68
2022/09/13 07:01:16;;;;;;;4.28;2.35;;;15.60;76.60;;;14.00;100.00;95711.72;5069847;28;20043;-68
2022/09/13 07:03:53;;;;;;;4.50;2.50;;;15.70;76.10;;;14.13;100.00;95694.09;5070427;28;20435;-69
2022/09/13 07:06:22;;;;;;;3.58;2.38;;;15.80;75.20;;;14.27;100.00;95703.50;5023692;28;20114;-68
2022/09/13 07:08:49;;;;;;;5.72;2.58;;;16.10;75.00;;;14.40;100.00;95690.09;5028063;28;20036;-69
2022/09/13 07:11:17;;;;;;;4.97;2.40;;;16.20;74.50;;;14.57;100.00;95700.94;5069769;28;20102;-69
2022/09/13 07:13:49;;;;;;;3.88;2.38;;;16.40;73.80;;;14.76;100.00;95691.13;5053769;28;20520;-69
2022/09/13 07:16:15;;;;;;;4.25;2.22;;;16.60;73.70;;;14.93;100.00;95695.53;5054368;28;20037;-68
2022/09/13 07:18:40;;;;;;;3.42;2.28;;;16.80;72.70;;;15.15;100.00;95705.59;5053211;28;20033;-69
2022/09/13 07:21:08;;;;;;;4.72;2.00;;;17.20;72.10;;;15.39;100.00;95709.09;5042069;28;20036;-68
2022/09/13 07:23:35;;;;;;;3.97;1.85;;;17.50;72.30;;;15.63;100.00;95705.50;5027745;28;20139;-69
2022/09/13 07:26:03;;;;;;;3.17;1.70;;;17.80;70.10;;;15.86;100.00;95694.09;5053389;28;20029;-69
2022/09/13 07:28:29;;;;;;;3.47;2.10;;;18.10;68.90;;;16.15;100.00;95700.28;5053425;28;20032;-68
2022/09/13 07:30:57;;;;;;;4.57;1.88;;;18.50;68.30;;;16.40;100.00;95698.16;5007511;28;20054;-68
2022/09/13 07:33:25;;;;;;;2.50;1.60;;;18.70;67.70;;;16.70;100.00;95705.91;5043407;28;20111;-69
2022/09/13 07:35:58;;;;;;;3.03;1.52;;;19.10;67.10;;;17.01;100.00;95704.66;5069689;28;20115;-69
2022/09/13 07:38:24;;;;;;;3.10;1.30;;;19.40;66.00;;;17.28;100.00;95693.41;5009171;28;20098;-68
2022/09/13 07:40:57;;;;;;;3.53;1.60;;;19.80;64.70;;;17.57;100.00;95700.25;5008526;28;20521;-68
2022/09/13 07:43:24;;;;;;;5.68;1.38;;;20.00;65.00;;;17.87;100.00;95699.13;5061479;28;20040;-68
2022/09/13 07:46:13;;;;;;;3.25;1.55;;;20.50;63.30;;;18.18;100.00;95698.50;5053035;28;20033;-69
2022/09/13 07:48:41;;;;;;;2.28;1.20;;;20.60;62.40;;;18.45;100.00;95697.78;5070587;28;20039;-69
2022/09/13 07:51:34;;;;;;;3.65;1.23;;;21.00;60.90;;;18.74;93.14;95698.41;5031760;28;20044;-69
2022/09/13 07:54:05;;;;;;;3.05;1.17;;;21.20;59.40;;;18.96;95.87;95697.31;4982181;28;20039;-68
2022/09/13 07:56:33;;;;;;;2.47;1.10;;;21.60;59.50;;;19.19;94.81;95695.41;5027152;28;20036;-69
2022/09/13 07:59:01;;;;;;;3.70;1.27;;;21.70;58.10;;;19.43;94.57;95688.69;5068437;28;20111;-69
2022/09/13 08:01:37;;;;;;;3.42;1.10;;;22.00;57.60;;;19.64;87.88;95689.69;5052760;28;20024;-69
2022/09/13 08:04:06;;;;;;;2.20;1.00;;;22.00;55.40;;;19.79;89.54;95683.66;5053198;28;20063;-69
2022/09/13 08:06:32;;;;;;;5.32;1.35;;;22.30;55.70;;;20.00;89.11;95674.72;5069388;28;20032;-69
2022/09/13 08:08:58;;;;;;;4.13;1.42;;;22.50;55.20;;;20.21;87.66;95675.63;5011885;28;20036;-70
2022/09/13 08:11:54;;;;;;;2.20;1.00;;;22.80;54.30;;;20.51;82.04;95674.97;5027066;28;20453;-69
2022/09/13 08:14:21;;;;;;;3.80;1.00;;;23.10;53.40;;;20.72;85.48;95678.53;5070018;28;20157;-69
2022/09/13 08:16:46;;;;;;;3.70;1.00;;;23.40;52.30;;;20.91;85.07;95684.19;5069078;28;20527;-69
2022/09/13 08:19:15;;;;;;;3.00;0.98;;;23.60;52.90;;;21.06;82.15;95682.38;5051607;28;20033;-69
2022/09/13 08:21:42;;;;;;;2.92;0.80;;;23.60;50.90;;;21.22;81.64;95679.69;5056730;28;20028;-69
2022/09/13 08:24:12;;;;;;;4.90;1.15;;;23.70;51.30;;;21.34;80.20;95683.75;5005810;28;20027;-69
2022/09/13 08:26:38;;;;;;;;;;;23.90;52.00;;;21.43;77.27;95685.88;4964837;28;20043;-69
2022/09/13 08:29:05;;;;;;;2.03;0.90;;;24.00;51.20;;;21.56;82.36;95685.38;4948990;28;19923;-68
2022/09/13 08:31:30;;;;;;;1.90;1.02;;;24.10;51.70;;;21.65;79.94;95689.09;4968819;28;20043;-68
2022/09/13 08:33:57;;;;;;;1.80;1.00;;;24.10;49.90;;;21.74;78.83;95687.50;4951549;28;20035;-69
2022/09/13 08:36:24;;;;;;;1.58;0.77;;;24.30;49.50;;;21.88;79.13;95688.53;4966221;28;20035;-69
2022/09/13 08:38:58;;;;;;;2.50;1.00;;;24.40;50.60;;;21.97;75.70;95673.56;4993104;28;20454;-69
2022/09/13 08:41:54;;;;;;;2.80;0.90;;;24.40;48.50;;;22.16;73.45;95672.97;5030023;28;20039;-69
2022/09/13 08:44:34;;;;;;;1.48;0.85;;;24.70;49.20;;;22.29;74.75;95672.41;5053210;28;20460;-68
2022/09/13 08:47:19;;;;;;;2.75;0.95;;;24.90;48.90;;;22.45;72.16;95671.28;5069695;28;20043;-69
2022/09/13 08:49:48;;;;;;;3.22;0.90;;;25.20;48.10;;;22.58;74.36;95681.41;5066358;28;20060;-68
2022/09/13 08:52:14;;;;;;;1.10;0.77;;;25.40;47.70;;;22.75;73.88;95680.25;4953559;28;20413;-69
2022/09/13 08:54:39;;;;;;;2.75;1.15;;;25.60;45.50;;;22.92;72.62;95673.50;5035202;28;20127;-69
2022/09/13 08:57:27;;;;;;;3.75;1.02;;;25.70;45.30;;;23.14;67.24;95675.78;5055546;28;20454;-69
2022/09/13 09:00:05;;;;;;;1.02;0.70;;;26.00;44.50;;;23.42;69.17;95687.66;5056770;28;20065;-69
2022/09/13 09:02:46;;;;;;;2.78;0.90;;;26.50;45.40;;;23.72;68.72;95686.63;5072633;28;20028;-69
2022/09/13 09:05:43;;;;;;;1.33;0.90;;;26.90;44.70;;;24.05;66.24;95676.13;5064149;28;20404;-69
2022/09/13 09:08:30;;;;;;;2.40;1.13;;;27.10;43.60;;;24.26;65.27;95666.78;5016546;28;20044;-69
2022/09/13 09:10:56;;;;;;;1.30;0.85;;;27.30;42.80;;;24.42;67.30;95664.72;5072574;28;20403;-69
2022/09/13 09:13:34;;;;;;;1.58;0.80;;;27.30;42.10;;;24.68;64.69;95659.84;5055375;28;20032;-69
2022/09/13 09:16:35;;;;;;;3.47;1.13;;;27.60;43.00;;;25.04;63.17;95652.09;4980498;28;20508;-70
2022/09/13 09:19:29;;;;;;;2.40;1.10;;;28.10;42.40;;;25.50;63.52;95643.31;4951700;28;20520;-70
2022/09/13 09:21:55;;;;;;;2.50;0.70;;;28.70;42.30;;;25.88;65.24;95657.53;4937079;28;20039;-69
2022/09/13 09:24:23;;;;;;;3.20;1.00;;;29.00;40.80;;;26.11;63.27;95656.56;5004169;28;20058;-70
2022/09/13 09:26:49;;;;;;;2.53;0.90;;;28.90;40.00;;;26.17;62.80;95652.69;5055933;28;20143;-69
2022/09/13 09:29:27;;;;;;;2.83;1.02;;;28.70;41.30;;;26.38;59.25;95638.81;5054819;28;20044;-69
2022/09/13 09:32:19;;;;;;;2.90;1.00;;;29.10;40.40;;;26.72;59.35;95639.22;5072218;28;20028;-69
2022/09/13 09:35:04;;;;;;;2.28;0.80;;;29.50;41.10;;;27.18;57.12;95640.91;5072040;28;20381;-69
2022/09/13 09:37:30;;;;;;;1.98;0.80;;;29.90;39.70;;;27.57;60.35;95644.84;5037938;28;20039;-69
2022/09/13 09:40:08;;;;;;;2.08;0.80;;;30.20;39.60;;;27.83;54.38;95628.81;5012050;28;20116;-70
2022/09/13 09:42:45;;;;;;;2.20;0.80;;;30.30;38.20;;;28.20;54.47;95627.56;5055939;28;20029;-70
2022/09/13 09:45:33;;;;;;;1.45;1.13;;;30.80;38.40;;;28.64;52.53;95619.28;5055321;28;20029;-70
2022/09/13 09:48:04;;;;;;;3.05;0.80;;;31.30;37.60;;;29.02;52.28;95629.56;5054910;28;20040;-70
2022/09/13 09:50:33;;;;;;;1.50;1.00;;;31.80;35.80;;;29.27;52.09;95626.06;5034724;28;20064;-70
2022/09/13 09:53:13;;;;;;;4.93;0.70;;;32.00;36.30;;;29.60;49.50;95630.97;4966226;28;20073;-70
2022/09/13 09:55:46;;;;;;;1.58;0.60;;;32.50;34.80;;;29.98;49.26;95622.13;4965333;28;20036;-70
2022/09/13 09:58:15;;;;;;;2.20;0.60;;;33.10;34.80;;;30.33;52.68;95620.13;4949952;28;20070;-70
2022/09/13 10:00:52;;;;;;;1.55;0.80;;;33.40;33.60;;;30.84;47.04;95610.91;4997023;28;20037;-70
2022/09/13 10:03:28;;;;;;;2.83;0.80;;;33.80;33.00;;;31.39;50.03;95602.47;5029413;28;20035;-70
2022/09/13 10:06:11;;;;;;;1.90;0.80;;;34.30;31.70;;;32.02;44.00;95596.09;5056181;28;20041;-70
2022/09/13 10:08:38;;;;;;;2.47;0.90;;;34.60;31.70;;;32.60;47.64;95597.63;5054892;28;20116;-70
2022/09/13 10:11:04;;;;;;;2.50;0.70;;;35.00;31.70;;;33.11;47.66;95585.19;5054571;28;20037;-70
2022/09/13 10:13:31;;;;;;;1.52;0.73;;;35.50;30.70;;;33.65;46.22;95594.84;5071417;28;20051;-70
2022/09/13 10:16:04;;;;;;;1.10;0.80;;;36.00;30.10;;;34.13;39.71;95574.69;4998627;28;20050;-70
2022/09/13 10:18:32;;;;;;;6.05;0.70;;;36.10;29.20;;;34.67;42.81;95580.28;5051586;28;20500;-72
2022/09/13 10:21:11;;;;;;;3.60;0.70;;;36.80;29.10;;;35.17;37.37;95570.44;5054610;28;20037;-70
2022/09/13 10:23:38;;;;;;;1.05;0.57;;;37.00;28.30;;;35.66;40.88;95558.91;5055512;28;20432;-70
2022/09/13 10:26:17;;;;;;;1.48;0.68;;;37.20;27.10;;;36.06;34.36;95560.41;5072298;28;20025;-71
2022/09/13 10:29:12;;;;;;;2.05;0.55;;;37.50;27.40;;;36.49;33.91;95561.91;5056534;28;20127;-70
2022/09/13 10:31:40;;;;;;;1.50;0.65;;;37.70;27.10;;;36.80;36.12;95560.81;4997177;28;20160;-70
2022/09/13 10:34:12;;;;;;;1.58;0.73;;;37.70;26.70;;;37.09;33.83;95561.97;4937339;28;20070;-70
2022/09/13 10:36:59;;;;;;;2.13;0.60;;;38.20;27.00;;;37.44;33.61;95553.41;4987952;28;20074;-70